Bardstown, Kentucky
Current Conditions -  °F | °C
As of 1:38 PM on Saturday 25 Oct 2014 (Local Time) from KFTK Reporting Station
Few Clouds Few Clouds  
Wind Chill: 22°   Ceiling: Unl
Heat Index: 22°   Visibility: 10mi
Dew Point: 14°   Wind: 6mph
Humidity: 60%   Direction: NA
Pressure: 29.97"   Gusts: NA
Location:  37.81°N, 85.47°W
Report Text: KFTK 251738Z AUTO VRB05KT 10SM FEW022 22/14 A2997 RMK AO2 PRESFR
Loading
Personal Weather Stations






























Interactive Weather Map
Tropical Storm Tracking
New forecast layout! Learn more

10-Day Weather Forecast

Advertisements
Track Severe Weather on mobile